Terminal Aerodrome Forecast
Issued by NWS

Home | Current Version | Previous Version | Text Only | Print | Product List | Glossary On
Versions: 1 2 3 4 5 6 7 8 9 10 11 12 13 14 15 16 17 18 19
659
FTUS43 KSGF 271733
TAFJLN
TAF
KJLN 271733Z 2718/2818 13008KT P6SM SCT050
     FM272000 17012KT P6SM SCT020 OVC025
     FM280200 17012G21KT P6SM SCT010 OVC020
     FM281400 20017G27KT P6SM BKN050=

USA.gov is the U.S. government's official web portal to all federal, state and local government web resources and services.